createdAt,value
2019-05-18T00:01:54.541Z,16.03
2019-05-18T00:04:19.042Z,15.93
2019-05-18T00:06:43.839Z,15.83
2019-05-18T00:09:08.553Z,15.83
2019-05-18T00:11:33.479Z,16.33
2019-05-18T00:13:58.095Z,16.03
2019-05-18T00:16:22.672Z,15.60
2019-05-18T00:18:47.285Z,15.87
2019-05-18T00:21:11.731Z,16.17
2019-05-18T00:23:36.275Z,15.53
2019-05-18T00:26:01.102Z,16.47
2019-05-18T00:28:25.726Z,16.17
2019-05-18T00:30:50.253Z,16.30
2019-05-18T00:33:14.723Z,16.13
2019-05-18T00:35:39.167Z,16.27
2019-05-18T00:38:03.633Z,16.83
2019-05-18T00:40:28.104Z,16.70
2019-05-18T00:42:52.547Z,17.43
2019-05-18T00:45:17.248Z,16.73
2019-05-18T00:47:42.463Z,17.70
2019-05-18T00:50:07.772Z,17.20
2019-05-18T00:52:32.230Z,17.77
2019-05-18T00:54:56.784Z,16.23
2019-05-18T00:57:21.241Z,16.60
2019-05-18T00:59:45.857Z,17.60
2019-05-18T01:02:10.302Z,18.50
2019-05-18T01:04:34.779Z,17.53
2019-05-18T01:06:59.283Z,16.73
2019-05-18T01:09:23.786Z,17.80
2019-05-18T01:11:48.300Z,17.83
2019-05-18T01:14:12.773Z,16.70
2019-05-18T01:16:37.362Z,16.93
2019-05-18T01:19:01.800Z,17.40
2019-05-18T01:21:26.477Z,17.87
2019-05-18T01:23:50.919Z,16.83
2019-05-18T01:26:15.468Z,18.10
2019-05-18T01:28:39.922Z,16.97
2019-05-18T01:31:04.558Z,17.57
2019-05-18T01:33:29.041Z,16.90
2019-05-18T01:35:53.622Z,17.27
2019-05-18T01:38:18.141Z,17.83
2019-05-18T01:40:42.695Z,17.97
2019-05-18T01:43:07.291Z,17.07
2019-05-18T01:45:31.841Z,17.57
2019-05-18T01:47:56.376Z,18.00
2019-05-18T01:50:20.873Z,17.53
2019-05-18T01:52:45.420Z,17.93
2019-05-18T01:55:10.639Z,17.77
2019-05-18T01:57:35.197Z,17.97
2019-05-18T01:59:59.645Z,17.83
2019-05-18T02:02:24.111Z,17.67
2019-05-18T02:04:48.570Z,17.57
2019-05-18T02:07:13.125Z,17.83
2019-05-18T02:09:37.651Z,18.37
2019-05-18T02:12:02.206Z,17.43
2019-05-18T02:14:26.741Z,17.23
2019-05-18T02:16:51.233Z,17.63
2019-05-18T02:19:15.763Z,18.20
2019-05-18T02:21:40.317Z,17.73
2019-05-18T02:24:04.918Z,17.10
2019-05-18T02:26:29.449Z,17.10
2019-05-18T02:28:54.081Z,18.47
2019-05-18T02:31:18.699Z,18.17
2019-05-18T02:33:43.318Z,19.30
2019-05-18T02:36:07.922Z,18.30
2019-05-18T02:38:32.457Z,17.83
2019-05-18T02:40:56.944Z,17.60
2019-05-18T02:43:21.485Z,17.93
2019-05-18T02:45:46.089Z,18.67
2019-05-18T02:48:10.696Z,18.30
2019-05-18T02:50:35.219Z,19.03
2019-05-18T02:52:59.768Z,18.47
2019-05-18T02:55:24.234Z,19.63
2019-05-18T02:57:48.780Z,18.90
2019-05-18T03:00:13.500Z,19.17
2019-05-18T03:02:38.035Z,20.43
2019-05-18T03:05:02.661Z,19.53
2019-05-18T03:07:27.115Z,19.87
2019-05-18T03:09:51.591Z,21.03
2019-05-18T03:12:16.161Z,20.47
2019-05-18T03:14:40.605Z,20.07
2019-05-18T03:17:05.172Z,20.53
2019-05-18T03:19:29.697Z,20.27
2019-05-18T03:21:54.164Z,20.50
2019-05-18T03:24:18.617Z,20.03
2019-05-18T03:26:43.077Z,20.07
2019-05-18T03:29:07.673Z,20.00
2019-05-18T03:31:32.128Z,22.10
2019-05-18T03:33:56.670Z,20.70
2019-05-18T03:36:21.387Z,20.67
2019-05-18T03:38:45.867Z,20.57
2019-05-18T03:41:10.382Z,20.33
2019-05-18T03:43:34.954Z,20.13
2019-05-18T03:45:59.484Z,19.53
2019-05-18T03:48:24.453Z,20.13
2019-05-18T03:50:49.774Z,19.80
2019-05-18T03:53:18.002Z,19.93
2019-05-18T03:55:40.635Z,20.93
2019-05-18T03:58:05.212Z,20.00
2019-05-18T04:00:29.668Z,20.80
2019-05-18T04:03:05.012Z,20.97
2019-05-18T04:05:29.591Z,21.10
2019-05-18T04:07:54.176Z,20.93
2019-05-18T04:10:26.741Z,20.30
2019-05-18T04:12:51.208Z,21.53
2019-05-18T04:15:15.733Z,19.40
2019-05-18T04:17:40.227Z,20.33
2019-05-18T04:20:08.538Z,19.63
2019-05-18T04:22:33.024Z,19.97
2019-05-18T04:24:57.542Z,20.90
2019-05-18T04:27:22.013Z,20.80
2019-05-18T04:29:46.556Z,20.97
2019-05-18T04:32:11.071Z,20.53
2019-05-18T04:34:35.587Z,20.80
2019-05-18T04:37:00.034Z,21.20
2019-05-18T04:39:24.521Z,19.87
2019-05-18T04:41:48.975Z,20.33
2019-05-18T04:44:13.515Z,20.77
2019-05-18T04:46:38.113Z,19.33
2019-05-18T04:49:02.614Z,20.60
2019-05-18T04:51:27.146Z,19.63
2019-05-18T04:53:51.656Z,20.13
2019-05-18T04:56:16.077Z,20.13
2019-05-18T04:58:40.561Z,20.77
2019-05-18T05:01:05.177Z,19.60
2019-05-18T05:03:29.665Z,19.87
2019-05-18T05:05:54.144Z,20.87
2019-05-18T05:08:18.611Z,19.53
2019-05-18T05:10:43.067Z,18.80
2019-05-18T05:13:07.608Z,20.10
2019-05-18T05:15:32.169Z,18.77
2019-05-18T05:17:56.691Z,20.00
2019-05-18T05:20:21.154Z,19.93
2019-05-18T05:22:47.514Z,20.77
2019-05-18T05:25:12.147Z,20.43
2019-05-18T05:27:36.606Z,20.47
2019-05-18T05:30:01.095Z,19.77
2019-05-18T05:32:25.665Z,20.50
2019-05-18T05:34:50.206Z,20.00
2019-05-18T05:37:14.728Z,20.13
2019-05-18T05:39:39.207Z,19.03
2019-05-18T05:42:03.664Z,19.63
2019-05-18T05:44:28.133Z,18.53
2019-05-18T05:46:52.594Z,19.37
2019-05-18T05:49:17.074Z,19.33
2019-05-18T05:51:41.598Z,19.67
2019-05-18T05:54:06.073Z,17.77
2019-05-18T05:56:30.520Z,18.77
2019-05-18T05:58:55.053Z,19.67
2019-05-18T06:01:19.493Z,18.93
2019-05-18T06:03:44.834Z,18.50
2019-05-18T06:06:09.274Z,19.33
2019-05-18T06:08:34.250Z,20.23
2019-05-18T06:10:58.758Z,19.20
2019-05-18T06:13:23.580Z,20.03
2019-05-18T06:15:48.140Z,18.60
2019-05-18T06:18:12.602Z,18.67
2019-05-18T06:20:50.533Z,19.17
2019-05-18T06:23:03.378Z,19.70
2019-05-18T06:25:27.887Z,18.40
2019-05-18T06:27:52.344Z,19.07
2019-05-18T06:30:17.724Z,19.10
2019-05-18T06:32:42.246Z,19.27
2019-05-18T06:35:06.955Z,19.27
2019-05-18T06:37:31.397Z,18.67
2019-05-18T06:39:55.987Z,18.17
2019-05-18T06:42:20.436Z,18.13
2019-05-18T06:44:45.006Z,18.60
2019-05-18T06:47:09.604Z,17.70
2019-05-18T06:49:34.069Z,18.07
2019-05-18T06:51:59.366Z,18.47
2019-05-18T06:54:23.990Z,20.57
2019-05-18T06:56:48.682Z,17.47
2019-05-18T06:59:16.466Z,18.13
2019-05-18T07:01:41.045Z,16.73
2019-05-18T07:04:05.600Z,16.10
2019-05-18T07:06:30.071Z,17.93
2019-05-18T07:08:54.529Z,17.53
2019-05-18T07:11:19.073Z,18.07
2019-05-18T07:13:43.535Z,18.50
2019-05-18T07:16:08.155Z,17.57
2019-05-18T07:18:32.611Z,17.67
2019-05-18T07:21:00.016Z,17.83
2019-05-18T07:23:24.559Z,17.93
2019-05-18T07:25:49.019Z,17.43
2019-05-18T07:28:13.468Z,15.67
2019-05-18T07:30:38.158Z,17.47
2019-05-18T07:33:02.612Z,18.03
2019-05-18T07:35:27.186Z,16.93
2019-05-18T07:37:51.712Z,17.17
2019-05-18T07:40:16.289Z,18.03
2019-05-18T07:42:40.888Z,17.53
2019-05-18T07:45:08.407Z,15.20
2019-05-18T07:47:32.928Z,16.33
2019-05-18T07:49:57.395Z,14.87
2019-05-18T07:52:21.901Z,14.73
2019-05-18T07:54:46.417Z,14.80
2019-05-18T07:57:10.888Z,13.57
2019-05-18T07:59:35.352Z,17.27
2019-05-18T08:01:59.828Z,15.07
2019-05-18T08:04:24.421Z,14.37
2019-05-18T08:06:48.977Z,14.20
2019-05-18T08:09:13.426Z,13.57
2019-05-18T08:11:37.914Z,14.23
2019-05-18T08:14:02.401Z,14.43
2019-05-18T08:16:26.855Z,12.37
2019-05-18T08:18:51.387Z,13.93
2019-05-18T08:21:17.085Z,11.77
2019-05-18T08:23:42.497Z,13.57
2019-05-18T08:26:06.978Z,13.53
2019-05-18T08:28:31.438Z,12.23
2019-05-18T08:30:55.940Z,11.77
2019-05-18T08:33:20.381Z,12.33
2019-05-18T08:35:44.841Z,11.97
2019-05-18T08:38:09.293Z,11.40
2019-05-18T08:40:33.780Z,10.37
2019-05-18T08:42:58.363Z,9.50
2019-05-18T08:45:22.949Z,9.73
2019-05-18T08:47:47.492Z,10.33
2019-05-18T08:50:13.259Z,9.20
2019-05-18T08:52:37.852Z,8.87
2019-05-18T08:55:02.476Z,9.73
2019-05-18T08:57:27.358Z,9.63
2019-05-18T08:59:51.902Z,10.63
2019-05-18T09:02:16.386Z,9.60
2019-05-18T09:04:40.822Z,9.53
2019-05-18T09:07:05.472Z,9.17
2019-05-18T09:09:30.024Z,9.67
2019-05-18T09:11:54.569Z,10.43
2019-05-18T09:14:19.083Z,8.70
2019-05-18T09:16:43.554Z,9.60
2019-05-18T09:19:07.990Z,10.40
2019-05-18T09:21:32.454Z,9.57
2019-05-18T09:23:56.904Z,10.07
2019-05-18T09:26:21.374Z,9.43
2019-05-18T09:28:45.839Z,10.80
2019-05-18T09:31:10.368Z,8.70
2019-05-18T09:33:34.887Z,8.80
2019-05-18T09:35:59.364Z,10.70
2019-05-18T09:38:23.806Z,8.03
2019-05-18T09:40:48.243Z,8.40
2019-05-18T09:43:12.727Z,8.90
2019-05-18T09:45:37.194Z,9.60
2019-05-18T09:48:01.653Z,8.47
2019-05-18T09:50:26.135Z,9.07
2019-05-18T09:52:50.650Z,7.90
2019-05-18T09:55:15.880Z,7.40
2019-05-18T09:57:40.341Z,7.50
2019-05-18T10:00:10.528Z,7.27
2019-05-18T10:02:35.049Z,7.87
2019-05-18T10:04:59.497Z,8.07
2019-05-18T10:07:24.020Z,8.60
2019-05-18T10:09:48.554Z,7.27
2019-05-18T10:12:13.016Z,6.70
2019-05-18T10:14:37.523Z,6.93
2019-05-18T10:17:02.315Z,6.77
2019-05-18T10:19:26.784Z,6.00
2019-05-18T10:21:51.325Z,6.70
2019-05-18T10:24:15.918Z,8.70
2019-05-18T10:26:40.355Z,6.73
2019-05-18T10:29:05.000Z,5.67
2019-05-18T10:31:29.512Z,6.13
2019-05-18T10:33:53.955Z,6.27
2019-05-18T10:36:18.388Z,5.13
2019-05-18T10:38:42.872Z,5.33
2019-05-18T10:41:07.456Z,7.03
2019-05-18T10:43:31.959Z,6.23
2019-05-18T10:45:56.452Z,5.50
2019-05-18T10:48:20.926Z,5.03
2019-05-18T10:50:45.431Z,5.83
2019-05-18T10:53:09.969Z,6.27
2019-05-18T10:55:34.685Z,6.10
2019-05-18T10:57:59.253Z,4.57
2019-05-18T11:00:23.830Z,4.10
2019-05-18T11:02:48.438Z,5.10
2019-05-18T11:05:13.638Z,4.77
2019-05-18T11:07:38.131Z,4.10
2019-05-18T11:10:02.662Z,4.20
2019-05-18T11:12:27.114Z,4.27
2019-05-18T11:14:51.745Z,5.03
2019-05-18T11:17:16.317Z,4.60
2019-05-18T11:19:40.845Z,8.70
2019-05-18T11:22:05.435Z,3.70
2019-05-18T11:24:29.889Z,3.80
2019-05-18T11:26:54.321Z,3.40
2019-05-18T11:29:22.750Z,3.60
2019-05-18T11:31:45.012Z,3.40
2019-05-18T11:34:09.535Z,3.47
2019-05-18T11:36:33.976Z,3.30
2019-05-18T11:38:58.591Z,3.50
2019-05-18T11:41:23.151Z,3.33
2019-05-18T11:43:47.626Z,3.30
2019-05-18T11:46:12.071Z,6.30
2019-05-18T11:48:36.622Z,3.50
2019-05-18T11:51:01.147Z,3.53
2019-05-18T11:53:25.706Z,3.23
2019-05-18T11:55:50.135Z,4.73
2019-05-18T11:58:14.715Z,3.63
2019-05-18T12:00:39.345Z,3.53
2019-05-18T12:03:03.946Z,4.00
2019-05-18T12:05:28.473Z,3.63
2019-05-18T12:07:52.996Z,3.87
2019-05-18T12:10:18.532Z,3.20
2019-05-18T12:12:43.232Z,3.27
2019-05-18T12:15:09.359Z,3.70
2019-05-18T12:17:33.872Z,3.17
2019-05-18T12:19:58.334Z,3.60
2019-05-18T12:22:22.748Z,3.43
2019-05-18T12:24:47.287Z,3.60
2019-05-18T12:27:11.733Z,4.10
2019-05-18T12:29:36.230Z,4.03
2019-05-18T12:32:00.670Z,4.47
2019-05-18T12:34:26.506Z,3.90
2019-05-18T12:36:50.937Z,3.70
2019-05-18T12:39:15.458Z,3.20
2019-05-18T12:41:39.970Z,3.70
2019-05-18T12:44:04.548Z,4.77
2019-05-18T12:46:29.139Z,3.60
2019-05-18T12:48:53.927Z,3.47
2019-05-18T12:51:18.397Z,3.50
2019-05-18T12:53:42.892Z,4.57
2019-05-18T12:56:07.454Z,3.90
2019-05-18T12:58:31.896Z,4.17
2019-05-18T13:00:56.373Z,3.80
2019-05-18T13:03:20.871Z,4.10
2019-05-18T13:05:45.344Z,4.80
2019-05-18T13:08:09.845Z,4.10
2019-05-18T13:10:34.333Z,4.20
2019-05-18T13:12:58.842Z,4.40
2019-05-18T13:15:24.342Z,3.90
2019-05-18T13:17:48.951Z,3.50
2019-05-18T13:20:14.360Z,4.27
2019-05-18T13:22:38.942Z,5.87
2019-05-18T13:25:04.755Z,3.70
2019-05-18T13:27:38.728Z,5.07
2019-05-18T13:29:55.370Z,3.30
2019-05-18T13:32:19.944Z,3.80
2019-05-18T13:34:44.456Z,3.77
2019-05-18T13:37:08.919Z,3.77
2019-05-18T13:39:33.484Z,3.50
2019-05-18T13:41:57.963Z,3.23
2019-05-18T13:44:22.415Z,3.43
2019-05-18T13:46:46.888Z,3.63
2019-05-18T13:49:11.329Z,3.70
2019-05-18T13:51:35.814Z,3.37
2019-05-18T13:54:00.270Z,3.67
2019-05-18T13:56:24.787Z,3.60
2019-05-18T13:58:49.242Z,3.43
2019-05-18T14:01:13.750Z,3.27
2019-05-18T14:03:38.263Z,3.27
2019-05-18T14:06:02.734Z,4.50
2019-05-18T14:08:27.215Z,3.13
2019-05-18T14:10:51.684Z,3.55
2019-05-18T14:13:16.138Z,3.13
2019-05-18T14:15:40.673Z,3.70
2019-05-18T14:18:05.221Z,3.83
2019-05-18T14:20:29.715Z,3.63
2019-05-18T14:22:54.181Z,3.60
2019-05-18T14:25:20.307Z,4.60
2019-05-18T14:27:44.988Z,3.53
2019-05-18T14:30:10.178Z,8.67
2019-05-18T14:32:34.714Z,3.70
2019-05-18T14:34:59.289Z,5.23
2019-05-18T14:37:23.749Z,4.07
2019-05-18T14:39:48.223Z,3.50
2019-05-18T14:42:12.767Z,4.17
2019-05-18T14:44:37.402Z,4.15
2019-05-18T14:47:01.869Z,4.00
2019-05-18T14:49:26.388Z,4.13
2019-05-18T14:51:50.867Z,3.50
2019-05-18T14:54:15.334Z,4.00
2019-05-18T14:56:39.760Z,3.57
2019-05-18T14:59:04.292Z,3.87
2019-05-18T15:01:28.744Z,3.90
2019-05-18T15:03:53.276Z,3.57
2019-05-18T15:06:17.741Z,4.55
2019-05-18T15:08:42.209Z,4.00
2019-05-18T15:11:06.786Z,3.63
2019-05-18T15:13:31.317Z,3.93
2019-05-18T15:15:55.763Z,4.37
2019-05-18T15:18:20.225Z,3.53
2019-05-18T15:20:44.662Z,3.73
2019-05-18T15:23:09.257Z,3.90
2019-05-18T15:25:49.331Z,3.77
2019-05-18T15:27:59.839Z,4.23
2019-05-18T15:30:24.417Z,4.30
2019-05-18T15:32:49.031Z,4.07
2019-05-18T15:35:13.865Z,5.43
2019-05-18T15:37:39.277Z,3.90
2019-05-18T15:40:04.294Z,5.83
2019-05-18T15:42:28.834Z,3.67
2019-05-18T15:44:53.303Z,4.00
2019-05-18T15:47:17.808Z,4.67
2019-05-18T15:49:42.337Z,3.80
2019-05-18T15:52:06.791Z,4.00
2019-05-18T15:54:31.256Z,4.77
2019-05-18T15:56:55.687Z,3.67
2019-05-18T15:59:20.175Z,4.13
2019-05-18T16:01:44.680Z,3.40
2019-05-18T16:04:09.233Z,3.27
2019-05-18T16:06:33.669Z,4.40
2019-05-18T16:08:58.305Z,3.63
2019-05-18T16:11:22.746Z,3.20
2019-05-18T16:13:49.157Z,3.17
2019-05-18T16:16:13.580Z,4.03
2019-05-18T16:18:38.049Z,3.43
2019-05-18T16:21:02.595Z,3.47
2019-05-18T16:23:27.087Z,3.10
2019-05-18T16:25:51.567Z,3.43
2019-05-18T16:28:16.117Z,3.40
2019-05-18T16:30:40.613Z,3.60
2019-05-18T16:33:05.204Z,3.20
2019-05-18T16:35:29.661Z,3.30
2019-05-18T16:37:54.192Z,2.93
2019-05-18T16:40:18.858Z,3.40
2019-05-18T16:42:46.355Z,3.23
2019-05-18T16:45:10.225Z,3.93
2019-05-18T16:47:34.660Z,3.20
2019-05-18T16:49:59.121Z,3.10
2019-05-18T16:52:23.560Z,3.43
2019-05-18T16:54:48.027Z,3.30
2019-05-18T16:57:12.454Z,3.00
2019-05-18T16:59:36.941Z,2.70
2019-05-18T17:02:01.436Z,3.10
2019-05-18T17:04:25.899Z,2.90
2019-05-18T17:06:50.492Z,3.40
2019-05-18T17:09:14.952Z,3.03
2019-05-18T17:11:39.404Z,3.67
2019-05-18T17:14:04.111Z,3.30
2019-05-18T17:16:28.630Z,3.37
2019-05-18T17:18:53.118Z,3.37
2019-05-18T17:21:17.646Z,4.17
2019-05-18T17:23:42.200Z,3.07
2019-05-18T17:26:06.741Z,3.00
2019-05-18T17:28:31.231Z,4.30
2019-05-18T17:30:55.741Z,2.47
2019-05-18T17:33:20.315Z,3.10
2019-05-18T17:35:59.446Z,3.50
2019-05-18T17:38:10.988Z,2.60
2019-05-18T17:40:35.608Z,3.10
2019-05-18T17:43:00.110Z,4.53
2019-05-18T17:45:24.719Z,4.77
2019-05-18T17:47:49.287Z,5.03
2019-05-18T17:50:14.707Z,14.17
2019-05-18T17:52:39.203Z,7.47
2019-05-18T17:55:05.011Z,10.50
2019-05-18T17:57:29.617Z,5.47
2019-05-18T17:59:54.074Z,19.83
2019-05-18T18:02:18.523Z,16.60
2019-05-18T18:04:42.989Z,3.50
2019-05-18T18:07:07.430Z,5.60
2019-05-18T18:09:31.917Z,3.93
2019-05-18T18:11:56.364Z,3.07
2019-05-18T18:14:20.965Z,3.10
2019-05-18T18:16:45.599Z,4.10
2019-05-18T18:19:10.050Z,4.67
2019-05-18T18:21:34.607Z,3.87
2019-05-18T18:23:59.123Z,2.83
2019-05-18T18:26:23.582Z,3.67
2019-05-18T18:28:48.045Z,5.37
2019-05-18T18:31:12.500Z,3.03
2019-05-18T18:33:37.001Z,7.57
2019-05-18T18:36:01.474Z,3.40
2019-05-18T18:38:25.987Z,3.00
2019-05-18T18:40:50.455Z,3.30
2019-05-18T18:43:15.747Z,3.40
2019-05-18T18:45:40.285Z,3.53
2019-05-18T18:48:04.894Z,3.60
2019-05-18T18:50:29.432Z,3.43
2019-05-18T18:52:53.881Z,5.63
2019-05-18T18:55:18.418Z,4.87
2019-05-18T18:57:42.926Z,4.03
2019-05-18T19:00:08.228Z,5.33
2019-05-18T19:02:32.739Z,4.47
2019-05-18T19:04:57.314Z,4.70
2019-05-18T19:07:21.825Z,4.37
2019-05-18T19:09:46.268Z,4.20
2019-05-18T19:12:10.787Z,3.73
2019-05-18T19:14:35.254Z,4.47
2019-05-18T19:16:59.829Z,4.43
2019-05-18T19:19:24.301Z,4.33
2019-05-18T19:21:48.846Z,5.80
2019-05-18T19:24:13.294Z,3.80
2019-05-18T19:26:37.870Z,5.03
2019-05-18T19:29:02.485Z,7.33
2019-05-18T19:31:27.004Z,10.17
2019-05-18T19:33:51.508Z,7.53
2019-05-18T19:36:15.978Z,7.97
2019-05-18T19:38:40.415Z,7.40
2019-05-18T19:41:05.003Z,6.43
2019-05-18T19:43:29.508Z,6.07
2019-05-18T19:45:54.059Z,10.37
2019-05-18T19:48:18.802Z,6.60
2019-05-18T19:50:43.612Z,6.70
2019-05-18T19:53:08.250Z,5.63
2019-05-18T19:55:32.740Z,5.80
2019-05-18T19:58:08.494Z,5.37
2019-05-18T20:00:25.734Z,4.80
2019-05-18T20:02:58.103Z,5.17
2019-05-18T20:05:22.566Z,6.97
2019-05-18T20:07:47.034Z,6.10
2019-05-18T20:10:13.543Z,5.73
2019-05-18T20:12:38.057Z,6.00
2019-05-18T20:15:02.519Z,6.67
2019-05-18T20:17:26.976Z,4.73
2019-05-18T20:19:51.551Z,4.60
2019-05-18T20:22:16.206Z,5.47
2019-05-18T20:24:40.631Z,6.03
2019-05-18T20:27:05.098Z,4.87
2019-05-18T20:29:29.538Z,5.10
2019-05-18T20:31:54.075Z,4.53
2019-05-18T20:34:18.690Z,6.33
2019-05-18T20:36:43.143Z,5.03
2019-05-18T20:39:07.845Z,5.90
2019-05-18T20:41:32.297Z,5.90
2019-05-18T20:43:56.761Z,6.60
2019-05-18T20:46:21.295Z,5.90
2019-05-18T20:48:45.741Z,6.20
2019-05-18T20:51:10.349Z,6.20
2019-05-18T20:53:34.787Z,7.33
2019-05-18T20:55:59.333Z,7.90
2019-05-18T20:58:38.272Z,7.30
2019-05-18T21:00:49.991Z,7.47
2019-05-18T21:03:14.493Z,7.47
2019-05-18T21:05:38.959Z,7.20
2019-05-18T21:08:03.428Z,6.77
2019-05-18T21:10:27.947Z,6.20
2019-05-18T21:12:52.415Z,6.03
2019-05-18T21:15:17.248Z,7.93
2019-05-18T21:17:41.705Z,8.23
2019-05-18T21:20:06.589Z,7.83
2019-05-18T21:22:31.045Z,7.43
2019-05-18T21:24:55.468Z,6.50
2019-05-18T21:27:20.054Z,6.33
2019-05-18T21:29:44.488Z,6.43
2019-05-18T21:32:08.962Z,5.83
2019-05-18T21:34:33.400Z,5.90
2019-05-18T21:36:57.870Z,6.00
2019-05-18T21:39:22.325Z,6.47
2019-05-18T21:41:46.884Z,7.47
2019-05-18T21:44:11.396Z,7.53
2019-05-18T21:46:38.964Z,9.73
2019-05-18T21:49:02.109Z,8.93
2019-05-18T21:51:26.544Z,8.87
2019-05-18T21:53:51.056Z,7.93
2019-05-18T21:56:15.516Z,8.47
2019-05-18T21:58:40.095Z,6.67
2019-05-18T22:01:05.543Z,7.80
2019-05-18T22:03:30.075Z,7.47
2019-05-18T22:05:54.532Z,10.90
2019-05-18T22:08:19.085Z,8.30
2019-05-18T22:10:43.601Z,6.90
2019-05-18T22:13:08.170Z,6.47
2019-05-18T22:15:32.579Z,6.93
2019-05-18T22:18:02.891Z,8.77
2019-05-18T22:20:27.356Z,8.27
2019-05-18T22:22:51.825Z,8.20
2019-05-18T22:25:16.296Z,6.67
2019-05-18T22:27:40.769Z,5.77
2019-05-18T22:30:05.956Z,6.10
2019-05-18T22:32:30.480Z,6.33
2019-05-18T22:34:54.988Z,6.50
2019-05-18T22:37:19.534Z,5.90
2019-05-18T22:39:43.973Z,6.13
2019-05-18T22:42:08.454Z,6.13
2019-05-18T22:44:32.874Z,6.07
2019-05-18T22:46:57.435Z,6.10
2019-05-18T22:49:21.867Z,5.83
2019-05-18T22:51:46.378Z,7.20
2019-05-18T22:54:10.839Z,7.33
2019-05-18T22:56:35.375Z,7.70
2019-05-18T22:58:59.997Z,7.03
2019-05-18T23:01:24.510Z,6.47
2019-05-18T23:03:51.663Z,6.80
2019-05-18T23:06:16.620Z,6.80
2019-05-18T23:08:41.082Z,6.63
2019-05-18T23:11:05.593Z,6.90
2019-05-18T23:13:30.196Z,7.00
2019-05-18T23:15:54.660Z,7.30
2019-05-18T23:18:19.192Z,7.07
2019-05-18T23:20:43.622Z,7.17
2019-05-18T23:23:08.093Z,7.33
2019-05-18T23:25:32.537Z,7.23
2019-05-18T23:27:57.004Z,7.70
2019-05-18T23:30:21.594Z,8.33
2019-05-18T23:32:46.053Z,8.20
2019-05-18T23:35:10.636Z,7.77
2019-05-18T23:37:35.092Z,8.73
2019-05-18T23:39:59.616Z,7.83
2019-05-18T23:42:24.063Z,8.57
2019-05-18T23:44:49.395Z,7.97
2019-05-18T23:47:13.848Z,7.57
2019-05-18T23:49:38.365Z,6.77
2019-05-18T23:52:02.821Z,7.37
2019-05-18T23:54:27.306Z,6.43
2019-05-18T23:56:51.758Z,6.90
2019-05-18T23:59:16.222Z,7.40
